sensor_id;sensor_type;location;lat;lon;timestamp;pressure;altitude;pressure_sealevel;temperature;humidity
48790;BME280;41718;51.980;5.734;2023-03-26T00:01:25;100617.75;;;6.93;100.00
48790;BME280;41718;51.980;5.734;2023-03-26T00:06:33;100616.22;;;7.01;100.00
48790;BME280;41718;51.980;5.734;2023-03-26T00:11:44;100613.69;;;7.03;100.00
48790;BME280;41718;51.980;5.734;2023-03-26T00:16:47;100600.03;;;7.05;100.00
48790;BME280;41718;51.980;5.734;2023-03-26T00:21:49;100609.38;;;7.02;100.00
48790;BME280;41718;51.980;5.734;2023-03-26T00:26:53;100603.06;;;6.89;100.00
48790;BME280;41718;51.980;5.734;2023-03-26T00:31:58;100602.41;;;6.98;100.00
48790;BME280;41718;51.980;5.734;2023-03-26T00:37:02;100591.19;;;6.94;100.00
48790;BME280;41718;51.980;5.734;2023-03-26T00:42:03;100585.25;;;6.97;100.00
48790;BME280;41718;51.980;5.734;2023-03-26T00:47:07;100581.81;;;6.96;100.00
48790;BME280;41718;51.980;5.734;2023-03-26T00:52:08;100573.25;;;6.97;100.00
48790;BME280;41718;51.980;5.734;2023-03-26T00:57:10;100566.25;;;6.91;100.00
48790;BME280;41718;51.980;5.734;2023-03-26T01:02:22;100566.25;;;6.91;100.00
48790;BME280;41718;51.980;5.734;2023-03-26T01:07:26;100567.25;;;6.97;100.00
48790;BME280;41718;51.980;5.734;2023-03-26T01:12:31;100554.47;;;7.00;100.00
48790;BME280;41718;51.980;5.734;2023-03-26T01:17:32;100551.06;;;7.01;100.00
48790;BME280;41718;51.980;5.734;2023-03-26T01:22:42;100537.38;;;7.03;100.00
48790;BME280;41718;51.980;5.734;2023-03-26T01:27:51;100528.91;;;7.06;100.00
48790;BME280;41718;51.980;5.734;2023-03-26T01:48:59;100496.31;;;7.05;100.00
48790;BME280;41718;51.980;5.734;2023-03-26T01:54:02;100494.56;;;7.04;100.00
48790;BME280;41718;51.980;5.734;2023-03-26T02:09:52;100469.78;;;7.07;100.00
48790;BME280;41718;51.980;5.734;2023-03-26T02:14:58;100467.16;;;7.06;100.00
48790;BME280;41718;51.980;5.734;2023-03-26T02:20:00;100462.03;;;7.06;100.00
48790;BME280;41718;51.980;5.734;2023-03-26T02:25:08;100461.28;;;7.11;100.00
48790;BME280;41718;51.980;5.734;2023-03-26T02:30:17;100453.63;;;7.14;100.00
48790;BME280;41718;51.980;5.734;2023-03-26T02:35:20;100446.84;;;7.16;100.00
48790;BME280;41718;51.980;5.734;2023-03-26T02:40:22;100441.72;;;7.18;100.00
48790;BME280;41718;51.980;5.734;2023-03-26T02:45:25;100434.84;;;7.17;100.00
48790;BME280;41718;51.980;5.734;2023-03-26T02:50:27;100441.72;;;7.18;100.00
48790;BME280;41718;51.980;5.734;2023-03-26T02:55:29;100434.88;;;7.20;100.00
48790;BME280;41718;51.980;5.734;2023-03-26T03:00:30;100426.38;;;7.21;100.00
48790;BME280;41718;51.980;5.734;2023-03-26T03:05:34;100430.66;;;7.21;100.00
48790;BME280;41718;51.980;5.734;2023-03-26T03:10:39;100423.72;;;7.20;100.00
48790;BME280;41718;51.980;5.734;2023-03-26T03:15:41;100413.63;;;7.27;100.00
48790;BME280;41718;51.980;5.734;2023-03-26T03:20:43;100409.34;;;7.28;100.00
48790;BME280;41718;51.980;5.734;2023-03-26T03:25:44;100401.44;;;7.20;100.00
48790;BME280;41718;51.980;5.734;2023-03-26T03:30:46;100397.16;;;7.19;100.00
48790;BME280;41718;51.980;5.734;2023-03-26T03:35:50;100390.28;;;7.20;100.00
48790;BME280;41718;51.980;5.734;2023-03-26T03:40:52;100398.84;;;7.18;100.00
48790;BME280;41718;51.980;5.734;2023-03-26T03:45:55;100402.25;;;7.16;100.00
48790;BME280;41718;51.980;5.734;2023-03-26T03:50:57;100397.97;;;7.16;100.00
48790;BME280;41718;51.980;5.734;2023-03-26T03:55:59;100381.59;;;7.13;100.00
48790;BME280;41718;51.980;5.734;2023-03-26T04:01:02;100385.84;;;7.11;100.00
48790;BME280;41718;51.980;5.734;2023-03-26T04:06:06;100375.44;;;7.06;100.00
48790;BME280;41718;51.980;5.734;2023-03-26T04:11:07;100366.84;;;7.04;100.00
48790;BME280;41718;51.980;5.734;2023-03-26T04:16:09;100364.16;;;7.00;100.00
48790;BME280;41718;51.980;5.734;2023-03-26T04:21:11;100357.38;;;7.03;100.00
48790;BME280;41718;51.980;5.734;2023-03-26T04:26:16;100353.06;;;7.02;100.00
48790;BME280;41718;51.980;5.734;2023-03-26T04:31:22;100341.81;;;6.97;100.00
48790;BME280;41718;51.980;5.734;2023-03-26T04:36:27;100346.16;;;7.00;100.00
48790;BME280;41718;51.980;5.734;2023-03-26T04:41:29;100328.03;;;6.92;100.00
48790;BME280;41718;51.980;5.734;2023-03-26T04:46:32;100323.63;;;6.88;100.00
48790;BME280;41718;51.980;5.734;2023-03-26T04:51:37;100316.03;;;6.93;100.00
48790;BME280;41718;51.980;5.734;2023-03-26T05:01:52;100307.34;;;6.87;100.00
48790;BME280;41718;51.980;5.734;2023-03-26T05:06:55;100292.72;;;6.85;100.00
48790;BME280;41718;51.980;5.734;2023-03-26T05:11:58;100287.53;;;6.83;100.00
48790;BME280;41718;51.980;5.734;2023-03-26T05:17:00;100291.81;;;6.83;100.00
48790;BME280;41718;51.980;5.734;2023-03-26T05:22:06;100286.72;;;6.86;100.00
48790;BME280;41718;51.980;5.734;2023-03-26T05:27:07;100272.97;;;6.82;100.00
48790;BME280;41718;51.980;5.734;2023-03-26T05:32:09;100269.56;;;6.83;100.00
48790;BME280;41718;51.980;5.734;2023-03-26T05:37:11;100255.84;;;6.83;100.00
48790;BME280;41718;51.980;5.734;2023-03-26T05:42:12;100254.09;;;6.82;100.00
48790;BME280;41718;51.980;5.734;2023-03-26T05:47:14;100246.31;;;6.79;100.00
48790;BME280;41718;51.980;5.734;2023-03-26T05:52:15;100242.84;;;6.77;100.00
48790;BME280;41718;51.980;5.734;2023-03-26T05:57:19;100235.94;;;6.74;100.00
48790;BME280;41718;51.980;5.734;2023-03-26T06:02:22;100229.97;;;6.75;100.00
48790;BME280;41718;51.980;5.734;2023-03-26T06:07:24;100218.78;;;6.73;100.00
48790;BME280;41718;51.980;5.734;2023-03-26T06:12:27;100216.16;;;6.70;100.00
48790;BME280;41718;51.980;5.734;2023-03-26T06:17:28;100207.63;;;6.71;100.00
48790;BME280;41718;51.980;5.734;2023-03-26T06:22:30;100198.28;;;6.76;100.00
48790;BME280;41718;51.980;5.734;2023-03-26T06:27:31;100190.59;;;6.76;100.00
48790;BME280;41718;51.980;5.734;2023-03-26T06:32:33;100187.97;;;6.75;100.00
48790;BME280;41718;51.980;5.734;2023-03-26T06:37:34;100183.75;;;6.78;100.00
48790;BME280;41718;51.980;5.734;2023-03-26T06:42:36;100188.97;;;6.81;100.00
48790;BME280;41718;51.980;5.734;2023-03-26T06:47:58;100189.09;;;6.87;100.00
48790;BME280;41718;51.980;5.734;2023-03-26T06:53:00;100191.75;;;6.92;100.00
48790;BME280;41718;51.980;5.734;2023-03-26T06:58:02;100184.16;;;7.00;100.00
48790;BME280;41718;51.980;5.734;2023-03-26T07:03:04;100179.94;;;7.03;100.00
48790;BME280;41718;51.980;5.734;2023-03-26T07:08:05;100181.69;;;7.04;100.00
48790;BME280;41718;51.980;5.734;2023-03-26T07:13:07;100175.75;;;7.08;100.00
48790;BME280;41718;51.980;5.734;2023-03-26T07:18:08;100181.81;;;7.12;100.00
48790;BME280;41718;51.980;5.734;2023-03-26T07:23:10;100177.66;;;7.20;100.00
48790;BME280;41718;51.980;5.734;2023-03-26T07:28:34;100170.78;;;7.19;100.00
48790;BME280;41718;51.980;5.734;2023-03-26T07:33:59;100172.41;;;7.14;100.00
48790;BME280;41718;51.980;5.734;2023-03-26T07:50:40;100168.13;;;7.14;100.00
48790;BME280;41718;51.980;5.734;2023-03-26T07:56:04;100150.13;;;7.14;100.00
48790;BME280;41718;51.980;5.734;2023-03-26T08:01:34;100154.50;;;7.18;100.00
48790;BME280;41718;51.980;5.734;2023-03-26T08:06:43;100143.16;;;7.09;100.00
48790;BME280;41718;51.980;5.734;2023-03-26T08:12:06;100148.44;;;7.15;100.00
48790;BME280;41718;51.980;5.734;2023-03-26T08:17:28;100144.19;;;7.18;100.00
48790;BME280;41718;51.980;5.734;2023-03-26T08:22:48;100146.78;;;7.18;100.00
48790;BME280;41718;51.980;5.734;2023-03-26T08:33:19;100147.56;;;7.14;100.00
48790;BME280;41718;51.980;5.734;2023-03-26T08:38:21;100145.03;;;7.16;100.00
48790;BME280;41718;51.980;5.734;2023-03-26T08:49:01;100147.59;;;7.16;100.00
48790;BME280;41718;51.980;5.734;2023-03-26T09:05:18;100141.34;;;7.03;100.00
48790;BME280;41718;51.980;5.734;2023-03-26T09:10:48;100144.00;;;7.08;100.00
48790;BME280;41718;51.980;5.734;2023-03-26T09:16:25;100148.28;;;7.07;100.00
48790;BME280;41718;51.980;5.734;2023-03-26T09:27:17;100141.41;;;7.05;100.00
48790;BME280;41718;51.980;5.734;2023-03-26T09:38:17;100144.19;;;7.17;100.00
48790;BME280;41718;51.980;5.734;2023-03-26T10:05:11;100139.41;;;7.40;100.00
48790;BME280;41718;51.980;5.734;2023-03-26T10:15:57;100144.47;;;7.35;100.00
48790;BME280;41718;51.980;5.734;2023-03-26T10:21:24;100138.81;;;7.56;100.00
48790;BME280;41718;51.980;5.734;2023-03-26T10:26:53;100134.63;;;7.64;100.00
48790;BME280;41718;51.980;5.734;2023-03-26T10:37:40;100142.91;;;8.01;100.00
48790;BME280;41718;51.980;5.734;2023-03-26T10:43:14;100148.94;;;8.02;100.00
48790;BME280;41718;51.980;5.734;2023-03-26T10:58:36;100162.56;;;7.96;100.00
48790;BME280;41718;51.980;5.734;2023-03-26T11:03:52;100160.44;;;7.66;100.00
48790;BME280;41718;51.980;5.734;2023-03-26T11:14:30;100175.06;;;7.70;100.00
48790;BME280;41718;51.980;5.734;2023-03-26T11:19:40;100174.00;;;7.56;100.00
48790;BME280;41718;51.980;5.734;2023-03-26T11:35:39;100188.63;;;7.60;100.00
48790;BME280;41718;51.980;5.734;2023-03-26T11:40:45;100188.84;;;7.72;100.00
48790;BME280;41718;51.980;5.734;2023-03-26T11:45:51;100194.53;;;7.54;100.00
48790;BME280;41718;51.980;5.734;2023-03-26T12:07:22;100209.66;;;7.36;100.00
48790;BME280;41718;51.980;5.734;2023-03-26T12:12:33;100223.78;;;7.09;100.00
48790;BME280;41718;51.980;5.734;2023-03-26T12:17:37;100219.50;;;7.10;100.00
48790;BME280;41718;51.980;5.734;2023-03-26T12:22:45;100230.59;;;7.09;100.00
48790;BME280;41718;51.980;5.734;2023-03-26T12:28:00;100229.94;;;7.17;100.00
48790;BME280;41718;51.980;5.734;2023-03-26T12:33:28;100231.31;;;7.00;100.00
48790;BME280;41718;51.980;5.734;2023-03-26T12:38:38;100245.03;;;7.01;100.00
48790;BME280;41718;51.980;5.734;2023-03-26T12:43:52;100250.09;;;6.96;100.00
48790;BME280;41718;51.980;5.734;2023-03-26T12:49:16;100256.63;;;6.80;100.00
48790;BME280;41718;51.980;5.734;2023-03-26T13:05:29;100271.56;;;6.98;100.00
48790;BME280;41718;51.980;5.734;2023-03-26T13:10:46;100277.72;;;7.06;100.00
48790;BME280;41718;51.980;5.734;2023-03-26T13:15:51;100274.97;;;6.97;100.00
48790;BME280;41718;51.980;5.734;2023-03-26T13:26:17;100280.59;;;7.22;100.00
48790;BME280;41718;51.980;5.734;2023-03-26T13:37:40;100285.03;;;7.29;100.00
48790;BME280;41718;51.980;5.734;2023-03-26T13:48:11;100283.44;;;7.84;100.00
48790;BME280;41718;51.980;5.734;2023-03-26T13:53:26;100294.19;;;8.13;100.00
48790;BME280;41718;51.980;5.734;2023-03-26T13:58:51;100295.38;;;7.80;100.00
48790;BME280;41718;51.980;5.734;2023-03-26T14:04:24;100303.31;;;7.92;100.00
48790;BME280;41718;51.980;5.734;2023-03-26T14:09:46;100308.34;;;7.86;100.00
48790;BME280;41718;51.980;5.734;2023-03-26T14:14:54;100312.63;;;7.84;100.00
48790;BME280;41718;51.980;5.734;2023-03-26T14:25:18;100304.41;;;8.07;100.00
48790;BME280;41718;51.980;5.734;2023-03-26T14:30:43;100300.88;;;8.00;100.00
48790;BME280;41718;51.980;5.734;2023-03-26T14:41:20;100296.81;;;8.16;100.00
48790;BME280;41718;51.980;5.734;2023-03-26T14:51:57;100306.13;;;8.08;100.00
48790;BME280;41718;51.980;5.734;2023-03-26T15:35:22;100348.84;;;7.48;100.00
48790;BME280;41718;51.980;5.734;2023-03-26T15:40:48;100353.09;;;7.44;100.00
48790;BME280;41718;51.980;5.734;2023-03-26T15:51:26;100365.38;;;7.17;100.00
48790;BME280;41718;51.980;5.734;2023-03-26T15:57:06;100390.13;;;7.10;100.00
48790;BME280;41718;51.980;5.734;2023-03-26T16:02:25;100394.16;;;6.99;100.00
48790;BME280;41718;51.980;5.734;2023-03-26T16:07:39;100413.03;;;7.00;100.00
48790;BME280;41718;51.980;5.734;2023-03-26T16:13:16;100420.59;;;6.92;100.00
48790;BME280;41718;51.980;5.734;2023-03-26T16:28:58;100456.25;;;6.78;100.00
48790;BME280;41718;51.980;5.734;2023-03-26T16:39:16;100468.28;;;6.46;100.00
48790;BME280;41718;51.980;5.734;2023-03-26T16:44:35;100471.69;;;6.45;100.00
48790;BME280;41718;51.980;5.734;2023-03-26T16:49:51;100484.41;;;6.39;100.00
48790;BME280;41718;51.980;5.734;2023-03-26T16:55:23;100508.63;;;6.49;100.00
48790;BME280;41718;51.980;5.734;2023-03-26T17:00:51;100514.94;;;6.28;100.00
48790;BME280;41718;51.980;5.734;2023-03-26T17:11:49;100545.63;;;6.24;100.00
48790;BME280;41718;51.980;5.734;2023-03-26T17:22:29;100561.41;;;6.06;100.00
48790;BME280;41718;51.980;5.734;2023-03-26T17:27:48;100578.16;;;5.93;100.00
48790;BME280;41718;51.980;5.734;2023-03-26T17:33:10;100587.53;;;5.91;100.00
48790;BME280;41718;51.980;5.734;2023-03-26T17:43:50;100618.47;;;5.69;100.00
48790;BME280;41718;51.980;5.734;2023-03-26T17:49:21;100644.03;;;5.66;100.00
48790;BME280;41718;51.980;5.734;2023-03-26T17:54:29;100649.69;;;5.55;100.00
48790;BME280;41718;51.980;5.734;2023-03-26T17:59:33;100655.50;;;5.50;100.00
48790;BME280;41718;51.980;5.734;2023-03-26T18:04:39;100671.56;;;5.44;100.00
48790;BME280;41718;51.980;5.734;2023-03-26T18:10:07;100670.56;;;5.39;100.00
48790;BME280;41718;51.980;5.734;2023-03-26T18:15:33;100692.34;;;5.26;100.00
48790;BME280;41718;51.980;5.734;2023-03-26T18:20:39;100700.78;;;5.22;100.00
48790;BME280;41718;51.980;5.734;2023-03-26T18:25:51;100709.13;;;5.17;100.00
48790;BME280;41718;51.980;5.734;2023-03-26T18:31:06;100723.47;;;5.12;100.00
48790;BME280;41718;51.980;5.734;2023-03-26T18:36:13;100725.91;;;5.09;100.00
48790;BME280;41718;51.980;5.734;2023-03-26T18:41:36;100739.84;;;4.91;100.00
48790;BME280;41718;51.980;5.734;2023-03-26T18:46:42;100753.31;;;4.86;100.00
48790;BME280;41718;51.980;5.734;2023-03-26T18:51:45;100767.59;;;4.79;100.00
48790;BME280;41718;51.980;5.734;2023-03-26T18:57:06;100774.22;;;4.74;100.00
48790;BME280;41718;51.980;5.734;2023-03-26T19:02:17;100790.16;;;4.65;100.00
48790;BME280;41718;51.980;5.734;2023-03-26T19:07:24;100807.09;;;4.62;100.00
48790;BME280;41718;51.980;5.734;2023-03-26T19:12:29;100820.25;;;4.48;100.00
48790;BME280;41718;51.980;5.734;2023-03-26T19:17:38;100831.91;;;4.42;100.00
48790;BME280;41718;51.980;5.734;2023-03-26T19:22:45;100842.53;;;4.30;100.00
48790;BME280;41718;51.980;5.734;2023-03-26T19:27:49;100853.94;;;4.16;100.00
48790;BME280;41718;51.980;5.734;2023-03-26T19:32:53;100862.19;;;4.09;100.00
48790;BME280;41718;51.980;5.734;2023-03-26T19:38:21;100860.31;;;4.05;100.00
48790;BME280;41718;51.980;5.734;2023-03-26T19:43:24;100877.41;;;4.06;100.00
48790;BME280;41718;51.980;5.734;2023-03-26T19:48:33;100895.06;;;3.99;100.00
48790;BME280;41718;51.980;5.734;2023-03-26T19:53:56;100908.22;;;3.88;100.00
48790;BME280;41718;51.980;5.734;2023-03-26T19:58:58;100923.38;;;3.83;100.00
48790;BME280;41718;51.980;5.734;2023-03-26T20:04:03;100933.94;;;3.71;100.00
48790;BME280;41718;51.980;5.734;2023-03-26T20:09:10;100939.41;;;3.60;100.00
48790;BME280;41718;51.980;5.734;2023-03-26T20:14:16;100946.06;;;3.56;100.00
48790;BME280;41718;51.980;5.734;2023-03-26T20:19:18;100959.53;;;3.52;100.00
48790;BME280;41718;51.980;5.734;2023-03-26T20:24:21;100966.63;;;3.40;100.00
48790;BME280;41718;51.980;5.734;2023-03-26T20:29:24;100980.81;;;3.33;100.00
48790;BME280;41718;51.980;5.734;2023-03-26T20:34:28;100980.91;;;3.35;100.00
48790;BME280;41718;51.980;5.734;2023-03-26T20:39:34;100995.22;;;3.31;100.00
48790;BME280;41718;51.980;5.734;2023-03-26T20:44:36;100998.81;;;3.35;100.00
48790;BME280;41718;51.980;5.734;2023-03-26T20:49:38;101008.06;;;3.33;100.00
48790;BME280;41718;51.980;5.734;2023-03-26T20:54:43;101008.00;;;3.31;100.00
48790;BME280;41718;51.980;5.734;2023-03-26T20:59:46;101023.41;;;3.33;100.00
48790;BME280;41718;51.980;5.734;2023-03-26T21:04:47;101031.81;;;3.30;100.00
48790;BME280;41718;51.980;5.734;2023-03-26T21:09:49;101046.47;;;3.34;100.00
48790;BME280;41718;51.980;5.734;2023-03-26T21:14:51;101054.81;;;3.30;100.00
48790;BME280;41718;51.980;5.734;2023-03-26T21:19:56;101061.41;;;3.25;100.00
48790;BME280;41718;51.980;5.734;2023-03-26T21:30:16;101069.66;;;3.19;100.00
48790;BME280;41718;51.980;5.734;2023-03-26T21:35:18;101079.81;;;3.18;100.00
48790;BME280;41718;51.980;5.734;2023-03-26T21:40:20;101095.34;;;3.05;100.00
48790;BME280;41718;51.980;5.734;2023-03-26T21:45:23;101093.13;;;2.95;100.00
48790;BME280;41718;51.980;5.734;2023-03-26T21:50:25;101096.03;;;2.84;100.00
48790;BME280;41718;51.980;5.734;2023-03-26T21:55:27;101106.34;;;2.70;100.00
48790;BME280;41718;51.980;5.734;2023-03-26T22:00:37;101118.34;;;2.54;100.00
48790;BME280;41718;51.980;5.734;2023-03-26T22:05:49;101135.81;;;2.47;100.00
48790;BME280;41718;51.980;5.734;2023-03-26T22:10:52;101139.41;;;2.34;100.00
48790;BME280;41718;51.980;5.734;2023-03-26T22:15:54;101156.06;;;2.44;100.00
48790;BME280;41718;51.980;5.734;2023-03-26T22:20:57;101161.34;;;2.30;100.00
48790;BME280;41718;51.980;5.734;2023-03-26T22:26:00;101171.69;;;2.17;100.00
48790;BME280;41718;51.980;5.734;2023-03-26T22:31:06;101187.31;;;2.07;100.00
48790;BME280;41718;51.980;5.734;2023-03-26T22:36:10;101188.44;;;2.12;100.00
48790;BME280;41718;51.980;5.734;2023-03-26T22:41:24;101193.28;;;2.07;100.00
48790;BME280;41718;51.980;5.734;2023-03-26T22:46:26;101204.75;;;1.99;100.00
48790;BME280;41718;51.980;5.734;2023-03-26T22:51:27;101206.97;;;1.93;100.00
48790;BME280;41718;51.980;5.734;2023-03-26T22:56:30;101226.84;;;1.99;100.00
48790;BME280;41718;51.980;5.734;2023-03-26T23:01:32;101237.75;;;1.96;100.00
48790;BME280;41718;51.980;5.734;2023-03-26T23:06:34;101243.09;;;2.01;100.00
48790;BME280;41718;51.980;5.734;2023-03-26T23:11:36;101257.09;;;1.93;100.00
48790;BME280;41718;51.980;5.734;2023-03-26T23:16:37;101264.44;;;1.72;100.00
48790;BME280;41718;51.980;5.734;2023-03-26T23:21:39;101283.84;;;1.55;100.00
48790;BME280;41718;51.980;5.734;2023-03-26T23:26:40;101301.34;;;1.49;100.00
48790;BME280;41718;51.980;5.734;2023-03-26T23:31:51;101311.44;;;1.47;100.00
48790;BME280;41718;51.980;5.734;2023-03-26T23:36:54;101304.25;;;1.55;100.00
48790;BME280;41718;51.980;5.734;2023-03-26T23:41:58;101317.31;;;1.31;100.00
48790;BME280;41718;51.980;5.734;2023-03-26T23:46:59;101318.66;;;1.12;100.00
48790;BME280;41718;51.980;5.734;2023-03-26T23:52:01;101325.06;;;1.05;100.00
48790;BME280;41718;51.980;5.734;2023-03-26T23:57:03;101337.22;;;0.96;100.00
